MBJ weather

Sangster International Airport
Montego Bay, Saint James, Jamaica

Public forecast

Using degrees Celsius for public forecast. Weather courtesy of forecast.io.

Current aviation weather report (METAR) for Sangster International Airport

Retrieved 2019/11/22 06:00 UTC (16 minutes ago):

MKJS 220600Z 09009KT 9999 FEW022 26/21 Q1013

Aviation forecast (TAF) for Sangster International Airport

Retrieved 2019/11/22 06:12 UTC (4 minutes ago):

TAF MKJS 220515Z 2206/2306 12005KT 9999 FEW022 BECMG 2215/2217 06015KT FEW022 FEW024CB PROB30 TEMPO 2218/2223 SHRA BKN020 FEW022CB BECMG 2301/2303 12006KT